»·PEaware :: N5205X KOSH-KOSH

N5205X :: KOSH-KOSH

FLIGHT INFORMATION

Flight Status: Arrived
Operator: Privately registered:
United States
More flights under this callsign
Pilot: Martin B. (29991)
Aircraft: CIRRUS SR-22
(SR22)
More flights by this aircraft type
Origin: KOSH Wittman Regl
United States
Destination: KOSH Wittman Regl
United States
More flights between these airports :: More routes between these airports
Route: null
File this flight plan on PilotEdge
Remarks:
Altitude:
(Current/Filed)
null
Speed:
(Current/Filed)
0kts
Departed: 24-Jul-20 01:20 PM
Arrived: 24-Jul-20 02:00 PM
Distance/Time
Traveled:
0nm/0:40
Distance/Time
To Go:
Arrived

Flight Plot

Page will automatically refresh every two minutes.

Flight plan parsing failed; only flown route is shown


Map Options




Map Legend


Flown Route
Filed Route
Departure Airport
Arrival Airport
Navaid (VOR, NDB)
Fix

Horizontal Profiles

Position Reports

Time Latitude Longitude Heading Altitude Ground
Speed
24-Jul-20 13:07 43.980500 -88.558544 124 792ft 0kts
24-Jul-20 13:08 43.980500 -88.558544 124 792ft 0kts
24-Jul-20 13:09 43.984957 -88.558786 151 789ft 0kts
24-Jul-20 13:10 43.984957 -88.558786 151 789ft 0kts
24-Jul-20 13:11 43.984957 -88.558786 151 789ft 0kts
24-Jul-20 13:12 43.984957 -88.558786 151 789ft 0kts
24-Jul-20 13:13 43.984957 -88.558786 151 789ft 0kts
24-Jul-20 13:14 43.984863 -88.558351 99 789ft 4kts
24-Jul-20 13:15 43.981648 -88.558013 181 791ft 23kts
24-Jul-20 13:16 43.976784 -88.558068 179 795ft 31kts
24-Jul-20 13:17 43.970116 -88.558170 178 804ft 19kts
24-Jul-20 13:18 43.967570 -88.556836 37 804ft 16kts
24-Jul-20 13:19 43.979363 -88.535907 118 1295ft 135kts
24-Jul-20 13:20 43.944114 -88.500779 148 1291ft 166kts
24-Jul-20 13:21 43.904177 -88.470749 193 1443ft 160kts
24-Jul-20 13:22 43.893220 -88.521708 268 2329ft 143kts
24-Jul-20 13:23 43.892910 -88.576355 269 3225ft 140kts
24-Jul-20 13:24 43.892411 -88.634375 269 3501ft 163kts
24-Jul-20 13:25 43.891891 -88.698481 269 3499ft 167kts
24-Jul-20 13:26 43.890399 -88.763001 250 3483ft 169kts
24-Jul-20 13:27 43.856090 -88.802958 199 3495ft 167kts
24-Jul-20 13:28 43.833003 -88.851425 282 3507ft 167kts
24-Jul-20 13:29 43.847854 -88.912519 296 3499ft 168kts
24-Jul-20 13:30 43.859427 -88.971654 245 3499ft 167kts
24-Jul-20 13:31 43.845532 -89.009286 242 3354ft 82kts
24-Jul-20 13:32 43.831296 -89.040595 240 2173ft 99kts
24-Jul-20 13:33 43.815366 -89.066346 188 1469ft 98kts
24-Jul-20 13:34 43.789061 -89.075854 177 1940ft 105kts
24-Jul-20 13:35 43.764703 -89.068191 121 1798ft 91kts
24-Jul-20 13:36 43.768285 -89.034422 64 1799ft 95kts
24-Jul-20 13:37 43.780186 -89.001798 61 1802ft 102kts
24-Jul-20 13:38 43.793291 -88.966763 62 1796ft 94kts
24-Jul-20 13:39 43.804964 -88.935123 62 1800ft 91kts
24-Jul-20 13:40 43.816629 -88.903480 62 1804ft 92kts
24-Jul-20 13:41 43.827796 -88.873123 62 1802ft 86kts
24-Jul-20 13:42 43.840779 -88.842050 48 1798ft 92kts
24-Jul-20 13:43 43.858409 -88.816160 45 1800ft 93kts
24-Jul-20 13:44 43.874731 -88.788559 61 1797ft 90kts
24-Jul-20 13:45 43.889016 -88.760735 47 1798ft 91kts
24-Jul-20 13:46 43.906503 -88.734365 37 1797ft 96kts
24-Jul-20 13:47 43.926033 -88.710949 35 1797ft 88kts
24-Jul-20 13:48 43.944443 -88.689634 38 1777ft 87kts
24-Jul-20 13:50 43.961676 -88.666909 56 1822ft 83kts
24-Jul-20 13:51 43.968219 -88.635569 62 1988ft 87kts
24-Jul-20 13:52 43.981244 -88.604479 67 1639ft 99kts
24-Jul-20 13:53 43.998687 -88.579179 86 1623ft 85kts
24-Jul-20 13:54 43.997734 -88.546201 154 1246ft 84kts
24-Jul-20 13:55 43.978036 -88.556774 191 1354ft 110kts
24-Jul-20 13:56 43.969237 -88.572694 343 1508ft 90kts
24-Jul-20 13:57 43.994164 -88.576038 2 1132ft 92kts
24-Jul-20 13:58 44.002468 -88.549113 106 1185ft 84kts
24-Jul-20 13:59 43.991568 -88.561791 273 783ft 54kts
24-Jul-20 14:00 43.992501 -88.567779 269 789ft 10kts
24-Jul-20 14:01 43.992547 -88.573522 268 799ft 13kts
24-Jul-20 14:02 43.991001 -88.574637 93 804ft 14kts
24-Jul-20 14:03 43.990934 -88.568507 92 794ft 14kts
24-Jul-20 14:04 43.990891 -88.561454 88 783ft 16kts
24-Jul-20 14:05 43.988327 -88.556008 216 782ft 18kts
24-Jul-20 14:06 43.984430 -88.557982 180 789ft 14kts
24-Jul-20 14:07 43.983736 -88.558571 168 789ft 0kts
24-Jul-20 14:08 43.983736 -88.558571 168 789ft 0kts

Navigation Log

Ident Type
Flight plan parsing failed, navigation log unavailable